createdAt,value
2022-08-19T00:01:59.067Z,23.20
2022-08-19T00:04:37.679Z,23.20
2022-08-19T00:07:06.801Z,23.20
2022-08-19T00:09:35.457Z,23.20
2022-08-19T00:12:03.706Z,23.20
2022-08-19T00:14:32.520Z,23.10
2022-08-19T00:17:00.938Z,23.10
2022-08-19T00:19:28.111Z,23.00
2022-08-19T00:21:57.931Z,23.00
2022-08-19T00:24:25.605Z,23.00
2022-08-19T00:26:54.240Z,23.00
2022-08-19T00:29:23.060Z,23.00
2022-08-19T00:31:53.947Z,23.10
2022-08-19T00:34:24.729Z,23.10
2022-08-19T00:36:51.981Z,23.10
2022-08-19T00:39:19.686Z,23.10
2022-08-19T00:41:49.771Z,23.10
2022-08-19T00:44:26.734Z,23.00
2022-08-19T00:46:58.437Z,23.00
2022-08-19T00:49:31.172Z,23.00
2022-08-19T00:52:08.052Z,23.00
2022-08-19T00:54:37.549Z,23.00
2022-08-19T00:57:10.618Z,23.00
2022-08-19T00:59:56.312Z,22.90
2022-08-19T01:02:30.277Z,22.90
2022-08-19T01:05:02.937Z,22.90
2022-08-19T01:07:37.510Z,22.90
2022-08-19T01:10:08.838Z,22.80
2022-08-19T01:12:37.397Z,22.80
2022-08-19T01:15:09.566Z,22.80
2022-08-19T01:17:40.116Z,22.80
2022-08-19T01:20:11.337Z,22.80
2022-08-19T01:22:46.650Z,22.80
2022-08-19T01:25:15.296Z,22.80
2022-08-19T01:27:45.601Z,22.70
2022-08-19T01:30:15.273Z,22.80
2022-08-19T01:32:42.939Z,22.70
2022-08-19T01:35:11.763Z,22.70
2022-08-19T01:37:53.845Z,22.70
2022-08-19T01:40:24.518Z,22.70
2022-08-19T01:42:52.287Z,22.70
2022-08-19T01:45:22.776Z,22.70
2022-08-19T01:47:55.542Z,22.70
2022-08-19T01:50:31.565Z,22.70
2022-08-19T01:53:06.191Z,22.70
2022-08-19T01:55:41.327Z,22.70
2022-08-19T01:58:13.838Z,22.70
2022-08-19T02:00:41.539Z,22.60
2022-08-19T02:03:12.377Z,22.60
2022-08-19T02:05:41.223Z,22.60
2022-08-19T02:08:10.885Z,22.70
2022-08-19T02:10:43.447Z,22.70
2022-08-19T02:13:11.905Z,22.70
2022-08-19T02:15:39.127Z,22.60
2022-08-19T02:18:07.191Z,22.60
2022-08-19T02:20:40.049Z,22.60
2022-08-19T02:23:13.766Z,22.60
2022-08-19T02:25:45.252Z,22.60
2022-08-19T02:28:16.629Z,22.50
2022-08-19T02:30:47.987Z,22.40
2022-08-19T02:33:16.231Z,22.40
2022-08-19T02:35:44.218Z,22.40
2022-08-19T02:38:27.936Z,22.40
2022-08-19T02:41:01.434Z,22.30
2022-08-19T02:43:33.672Z,22.30
2022-08-19T02:46:12.970Z,22.30
2022-08-19T02:48:40.550Z,22.20
2022-08-19T02:51:07.619Z,22.20
2022-08-19T02:53:36.105Z,22.20
2022-08-19T02:56:07.392Z,22.20
2022-08-19T02:58:34.625Z,22.20
2022-08-19T03:01:02.198Z,22.10
2022-08-19T03:03:32.822Z,22.10
2022-08-19T03:06:13.664Z,22.10
2022-08-19T03:08:44.699Z,22.00
2022-08-19T03:11:15.952Z,22.00
2022-08-19T03:13:45.978Z,21.90
2022-08-19T03:16:13.756Z,21.90
2022-08-19T03:18:40.794Z,21.90
2022-08-19T03:21:16.129Z,21.90
2022-08-19T03:23:44.949Z,21.80
2022-08-19T03:26:16.552Z,21.90
2022-08-19T03:28:51.751Z,21.80
2022-08-19T03:31:44.225Z,21.80
2022-08-19T03:34:18.623Z,21.90
2022-08-19T03:36:46.984Z,21.80
2022-08-19T03:39:16.471Z,21.80
2022-08-19T03:41:48.338Z,21.80
2022-08-19T03:44:19.225Z,21.80
2022-08-19T03:46:48.509Z,21.80
2022-08-19T03:49:18.252Z,21.80
2022-08-19T03:51:47.332Z,21.70
2022-08-19T03:54:18.972Z,21.70
2022-08-19T03:56:49.413Z,21.70
2022-08-19T03:59:20.930Z,21.70
2022-08-19T04:01:48.053Z,21.80
2022-08-19T04:04:15.147Z,21.70
2022-08-19T04:06:44.109Z,21.70
2022-08-19T04:09:12.793Z,21.70
2022-08-19T04:11:44.960Z,21.70
2022-08-19T04:14:16.318Z,21.60
2022-08-19T04:16:45.428Z,21.60
2022-08-19T04:19:14.428Z,21.50
2022-08-19T04:21:44.010Z,21.60
2022-08-19T04:24:11.812Z,21.60
2022-08-19T04:26:40.410Z,21.60
2022-08-19T04:29:12.774Z,21.60
2022-08-19T04:31:41.943Z,21.60
2022-08-19T04:34:12.228Z,21.60
2022-08-19T04:36:42.600Z,21.60
2022-08-19T04:39:13.087Z,21.60
2022-08-19T04:42:06.273Z,21.50
2022-08-19T04:44:35.230Z,21.50
2022-08-19T04:47:10.887Z,21.60
2022-08-19T04:49:41.403Z,21.60
2022-08-19T04:52:09.328Z,21.50
2022-08-19T04:54:38.022Z,21.50
2022-08-19T04:57:11.427Z,21.50
2022-08-19T04:59:40.145Z,21.50
2022-08-19T05:02:09.786Z,21.50
2022-08-19T05:04:39.907Z,21.50
2022-08-19T05:07:07.679Z,21.50
2022-08-19T05:09:57.094Z,21.60
2022-08-19T05:12:25.849Z,21.60
2022-08-19T05:15:03.195Z,21.60
2022-08-19T05:17:34.895Z,21.60
2022-08-19T05:20:28.966Z,21.60
2022-08-19T05:22:56.331Z,21.70
2022-08-19T05:25:26.196Z,21.80
2022-08-19T05:27:54.656Z,21.80
2022-08-19T05:30:33.439Z,21.80
2022-08-19T05:33:00.860Z,21.80
2022-08-19T05:35:29.097Z,21.80
2022-08-19T05:38:01.986Z,21.80
2022-08-19T05:40:32.151Z,21.90
2022-08-19T05:43:00.600Z,21.90
2022-08-19T05:45:30.622Z,21.90
2022-08-19T05:47:58.203Z,22.00
2022-08-19T05:50:26.758Z,22.00
2022-08-19T05:52:59.754Z,22.00
2022-08-19T05:55:26.698Z,22.10
2022-08-19T05:57:53.699Z,22.10
2022-08-19T06:00:24.716Z,22.20
2022-08-19T06:02:52.474Z,22.20
2022-08-19T06:05:22.838Z,22.20
2022-08-19T06:07:52.797Z,22.20
2022-08-19T06:10:20.149Z,22.20
2022-08-19T06:12:47.171Z,22.20
2022-08-19T06:15:16.055Z,22.30
2022-08-19T06:17:45.476Z,22.40
2022-08-19T06:20:16.184Z,22.50
2022-08-19T06:22:46.954Z,22.50
2022-08-19T06:25:15.782Z,22.50
2022-08-19T06:28:14.782Z,22.50
2022-08-19T06:30:31.093Z,22.40
2022-08-19T06:32:59.492Z,22.40
2022-08-19T06:35:26.638Z,22.50
2022-08-19T06:37:54.487Z,22.50
2022-08-19T06:40:21.995Z,22.50
2022-08-19T06:42:54.224Z,22.40
2022-08-19T06:45:24.802Z,22.50
2022-08-19T06:47:56.700Z,22.50
2022-08-19T06:50:25.742Z,22.60
2022-08-19T06:52:53.274Z,22.60
2022-08-19T06:55:20.721Z,22.70
2022-08-19T06:57:49.292Z,22.70
2022-08-19T07:00:16.945Z,22.70
2022-08-19T07:02:49.795Z,22.80
2022-08-19T07:05:24.298Z,22.80
2022-08-19T07:07:52.153Z,22.90
2022-08-19T07:10:20.321Z,23.00
2022-08-19T07:12:48.553Z,23.10
2022-08-19T07:15:16.951Z,23.30
2022-08-19T07:17:52.519Z,23.50
2022-08-19T07:20:20.245Z,23.70
2022-08-19T07:22:52.276Z,23.80
2022-08-19T07:25:21.863Z,23.90
2022-08-19T07:28:01.469Z,23.90
2022-08-19T07:30:29.116Z,23.90
2022-08-19T07:32:57.157Z,23.90
2022-08-19T07:35:24.484Z,23.90
2022-08-19T07:37:54.067Z,24.00
2022-08-19T07:40:21.871Z,24.10
2022-08-19T07:42:49.218Z,24.30
2022-08-19T07:45:16.989Z,24.40
2022-08-19T07:47:50.159Z,24.40
2022-08-19T07:50:20.993Z,24.50
2022-08-19T07:52:50.364Z,24.50
2022-08-19T07:55:40.415Z,24.50
2022-08-19T07:58:13.414Z,24.50
2022-08-19T08:00:40.917Z,24.60
2022-08-19T08:03:09.456Z,24.60
2022-08-19T08:05:55.175Z,24.60
2022-08-19T08:08:43.935Z,24.60
2022-08-19T08:11:15.722Z,24.60
2022-08-19T08:13:43.149Z,24.60
2022-08-19T08:16:14.113Z,24.50
2022-08-19T08:18:43.210Z,24.60
2022-08-19T08:21:15.346Z,24.70
2022-08-19T08:23:43.766Z,24.80
2022-08-19T08:26:16.634Z,24.80
2022-08-19T08:28:48.057Z,24.80
2022-08-19T08:31:16.768Z,24.60
2022-08-19T08:33:44.222Z,24.50
2022-08-19T08:36:12.743Z,24.40
2022-08-19T08:38:41.904Z,24.40
2022-08-19T08:41:20.943Z,24.30
2022-08-19T08:43:53.948Z,24.30
2022-08-19T08:46:31.024Z,24.20
2022-08-19T08:49:08.284Z,24.20
2022-08-19T08:54:19.332Z,24.20
2022-08-19T08:56:51.531Z,24.30
2022-08-19T08:59:27.905Z,24.40
2022-08-19T09:01:55.132Z,24.30
2022-08-19T09:04:23.486Z,24.40
2022-08-19T09:07:18.465Z,24.30
2022-08-19T09:09:56.088Z,24.50
2022-08-19T09:12:35.285Z,24.50
2022-08-19T09:15:08.440Z,24.70
2022-08-19T09:17:50.168Z,24.70
2022-08-19T09:20:24.273Z,24.80
2022-08-19T09:22:53.706Z,24.90
2022-08-19T09:25:24.611Z,24.90
2022-08-19T09:28:02.637Z,24.90
2022-08-19T09:30:34.281Z,25.00
2022-08-19T09:33:01.983Z,25.10
2022-08-19T09:35:50.140Z,25.00
2022-08-19T09:38:23.663Z,25.10
2022-08-19T09:41:02.498Z,25.00
2022-08-19T09:43:44.481Z,25.00
2022-08-19T09:46:18.024Z,25.00
2022-08-19T09:48:49.463Z,24.90
2022-08-19T09:51:21.474Z,25.00
2022-08-19T09:53:54.661Z,25.00
2022-08-19T09:56:23.243Z,25.00
2022-08-19T09:58:55.928Z,25.00
2022-08-19T10:01:26.169Z,25.10
2022-08-19T10:03:55.955Z,25.20
2022-08-19T10:06:43.271Z,25.20
2022-08-19T10:09:13.338Z,25.20
2022-08-19T10:11:49.860Z,25.30
2022-08-19T10:14:26.474Z,25.40
2022-08-19T10:16:53.653Z,25.30
2022-08-19T10:19:25.514Z,25.30
2022-08-19T10:21:53.681Z,25.40
2022-08-19T10:24:21.585Z,25.40
2022-08-19T10:26:58.796Z,25.50
2022-08-19T10:29:32.748Z,25.50
2022-08-19T10:32:05.481Z,25.60
2022-08-19T10:34:48.155Z,25.70
2022-08-19T10:37:23.959Z,25.70
2022-08-19T10:40:05.278Z,25.70
2022-08-19T10:42:39.451Z,25.80
2022-08-19T10:45:11.109Z,25.80
2022-08-19T10:47:38.837Z,25.80
2022-08-19T10:50:28.844Z,25.90
2022-08-19T10:53:08.158Z,26.00
2022-08-19T10:56:05.088Z,26.00
2022-08-19T10:58:35.139Z,26.00
2022-08-19T11:01:05.443Z,26.10
2022-08-19T11:03:34.139Z,26.20
2022-08-19T11:06:03.439Z,26.30
2022-08-19T11:08:35.508Z,26.30
2022-08-19T11:11:04.477Z,26.40
2022-08-19T11:13:36.312Z,26.40
2022-08-19T11:16:08.611Z,26.40
2022-08-19T11:18:42.335Z,26.40
2022-08-19T11:21:13.477Z,26.40
2022-08-19T11:23:41.821Z,26.40
2022-08-19T11:26:09.547Z,26.50
2022-08-19T11:28:40.289Z,26.50
2022-08-19T11:31:13.310Z,26.50
2022-08-19T11:33:41.315Z,26.50
2022-08-19T11:36:09.126Z,26.50
2022-08-19T11:38:36.637Z,26.60
2022-08-19T11:41:06.767Z,26.60
2022-08-19T11:43:37.325Z,26.60
2022-08-19T11:46:08.039Z,26.70
2022-08-19T11:48:37.054Z,26.70
2022-08-19T11:51:08.131Z,26.70
2022-08-19T11:53:35.631Z,26.80
2022-08-19T11:56:04.692Z,26.80
2022-08-19T11:58:31.919Z,26.80
2022-08-19T12:01:05.619Z,26.90
2022-08-19T12:03:32.794Z,26.90
2022-08-19T12:06:06.009Z,26.90
2022-08-19T12:08:33.347Z,26.90
2022-08-19T12:11:02.293Z,27.00
2022-08-19T12:13:31.306Z,26.90
2022-08-19T12:15:59.377Z,26.90
2022-08-19T12:18:28.521Z,26.90
2022-08-19T12:20:56.579Z,27.00
2022-08-19T12:23:25.068Z,27.00
2022-08-19T12:25:55.594Z,27.00
2022-08-19T12:28:25.112Z,27.00
2022-08-19T12:30:52.561Z,27.10
2022-08-19T12:33:24.552Z,27.10
2022-08-19T12:35:51.980Z,27.20
2022-08-19T12:38:19.638Z,27.10
2022-08-19T12:40:49.338Z,27.10
2022-08-19T12:43:16.906Z,27.10
2022-08-19T12:45:44.542Z,27.10
2022-08-19T12:48:33.615Z,27.20
2022-08-19T12:51:07.568Z,27.30
2022-08-19T12:53:34.812Z,27.30
2022-08-19T12:56:12.350Z,27.40
2022-08-19T12:58:42.590Z,27.40
2022-08-19T13:01:22.633Z,27.40
2022-08-19T13:03:51.135Z,27.40
2022-08-19T13:06:19.555Z,27.50
2022-08-19T13:08:51.378Z,27.50
2022-08-19T13:11:24.232Z,27.40
2022-08-19T13:13:53.271Z,27.40
2022-08-19T13:16:21.270Z,27.30
2022-08-19T13:18:57.141Z,27.40
2022-08-19T13:21:30.993Z,27.40
2022-08-19T13:24:01.323Z,27.50
2022-08-19T13:26:30.176Z,27.50
2022-08-19T13:29:27.175Z,27.50
2022-08-19T13:32:13.175Z,27.40
2022-08-19T13:34:49.412Z,27.30
2022-08-19T13:37:40.062Z,27.30
2022-08-19T13:40:17.821Z,27.20
2022-08-19T13:42:52.748Z,27.30
2022-08-19T13:45:26.097Z,27.30
2022-08-19T13:47:59.191Z,27.50
2022-08-19T13:50:48.996Z,27.60
2022-08-19T13:53:19.353Z,27.50
2022-08-19T13:55:46.833Z,27.50
2022-08-19T13:58:15.623Z,27.50
2022-08-19T14:00:49.393Z,27.50
2022-08-19T14:03:19.460Z,27.60
2022-08-19T14:05:49.430Z,27.70
2022-08-19T14:08:22.513Z,27.70
2022-08-19T14:10:55.814Z,27.70
2022-08-19T14:13:24.952Z,27.70
2022-08-19T14:15:53.193Z,27.60
2022-08-19T14:18:28.694Z,27.60
2022-08-19T14:20:58.040Z,27.50
2022-08-19T14:23:32.669Z,27.50
2022-08-19T14:26:08.469Z,27.50
2022-08-19T14:31:26.786Z,27.60
2022-08-19T14:33:56.161Z,27.60
2022-08-19T14:36:23.389Z,27.60
2022-08-19T14:38:50.483Z,27.60
2022-08-19T14:41:23.995Z,27.60
2022-08-19T14:43:54.295Z,27.60
2022-08-19T14:46:25.795Z,27.60
2022-08-19T14:48:56.643Z,27.70
2022-08-19T14:51:27.344Z,27.70
2022-08-19T14:53:54.963Z,27.70
2022-08-19T14:56:26.293Z,27.60
2022-08-19T14:58:55.211Z,27.60
2022-08-19T15:01:23.871Z,27.50
2022-08-19T15:03:53.892Z,27.60
2022-08-19T15:06:23.207Z,27.50
2022-08-19T15:08:52.586Z,27.60
2022-08-19T15:11:23.570Z,27.60
2022-08-19T15:13:50.984Z,27.70
2022-08-19T15:16:20.285Z,27.70
2022-08-19T15:18:53.678Z,27.70
2022-08-19T15:21:26.698Z,27.80
2022-08-19T15:23:56.356Z,27.80
2022-08-19T15:26:23.589Z,27.80
2022-08-19T15:28:50.582Z,27.80
2022-08-19T15:31:28.342Z,27.80
2022-08-19T15:33:58.103Z,27.80
2022-08-19T15:36:26.586Z,27.80
2022-08-19T15:38:53.799Z,27.80
2022-08-19T15:41:24.120Z,27.80
2022-08-19T15:43:55.583Z,27.90
2022-08-19T15:46:28.343Z,27.90
2022-08-19T15:49:00.087Z,27.80
2022-08-19T15:51:30.422Z,27.80
2022-08-19T15:53:58.496Z,27.80
2022-08-19T15:56:27.536Z,27.80
2022-08-19T15:59:13.759Z,27.80
2022-08-19T16:02:01.013Z,27.70
2022-08-19T16:04:47.345Z,27.70
2022-08-19T16:07:14.504Z,27.70
2022-08-19T16:09:49.605Z,27.80
2022-08-19T16:12:19.755Z,27.80
2022-08-19T16:14:48.607Z,27.80
2022-08-19T16:17:17.066Z,27.80
2022-08-19T16:19:44.126Z,27.70
2022-08-19T16:22:14.564Z,27.70
2022-08-19T16:24:41.644Z,27.70
2022-08-19T16:27:11.625Z,27.70
2022-08-19T16:29:39.269Z,27.70
2022-08-19T16:32:10.644Z,27.70
2022-08-19T16:34:41.315Z,27.80
2022-08-19T16:37:11.579Z,27.70
2022-08-19T16:39:39.247Z,27.70
2022-08-19T16:42:09.187Z,27.70
2022-08-19T16:44:44.909Z,27.70
2022-08-19T16:47:12.667Z,27.70
2022-08-19T16:49:52.965Z,27.70
2022-08-19T16:52:25.155Z,27.70
2022-08-19T16:54:52.676Z,27.70
2022-08-19T16:57:20.146Z,27.70
2022-08-19T16:59:52.216Z,27.70
2022-08-19T17:02:22.425Z,27.70
2022-08-19T17:04:57.145Z,27.70
2022-08-19T17:07:32.153Z,27.60
2022-08-19T17:10:01.995Z,27.60
2022-08-19T17:12:32.508Z,27.60
2022-08-19T17:15:04.976Z,27.60
2022-08-19T17:17:32.464Z,27.60
2022-08-19T17:20:03.283Z,27.60
2022-08-19T17:22:30.339Z,27.50
2022-08-19T17:24:58.332Z,27.60
2022-08-19T17:27:26.825Z,27.50
2022-08-19T17:29:59.902Z,27.50
2022-08-19T17:32:27.327Z,27.50
2022-08-19T17:34:54.477Z,27.50
2022-08-19T17:37:23.182Z,27.40
2022-08-19T17:39:50.987Z,27.40
2022-08-19T17:42:18.346Z,27.30
2022-08-19T17:44:50.815Z,27.30
2022-08-19T17:47:18.758Z,27.30
2022-08-19T17:49:45.889Z,27.30
2022-08-19T17:52:13.039Z,27.20
2022-08-19T17:54:41.571Z,27.10
2022-08-19T17:57:09.631Z,27.10
2022-08-19T17:59:47.473Z,27.10
2022-08-19T18:02:15.831Z,27.00
2022-08-19T18:04:48.877Z,27.00
2022-08-19T18:07:21.617Z,27.00
2022-08-19T18:09:53.969Z,26.90
2022-08-19T18:12:26.918Z,26.90
2022-08-19T18:14:54.131Z,26.80
2022-08-19T18:17:23.163Z,26.80
2022-08-19T18:19:50.579Z,26.80
2022-08-19T18:22:26.556Z,26.80
2022-08-19T18:24:56.976Z,26.70
2022-08-19T18:27:24.457Z,26.70
2022-08-19T18:29:51.798Z,26.60
2022-08-19T18:32:24.090Z,26.60
2022-08-19T18:34:52.175Z,26.50
2022-08-19T18:37:19.811Z,26.50
2022-08-19T18:40:15.202Z,26.50
2022-08-19T18:43:02.339Z,26.40
2022-08-19T18:45:53.352Z,26.40
2022-08-19T18:48:48.386Z,26.40
2022-08-19T18:51:19.325Z,26.30
2022-08-19T18:53:48.513Z,26.20
2022-08-19T18:56:28.480Z,26.20
2022-08-19T18:58:59.033Z,26.20
2022-08-19T19:01:31.028Z,26.10
2022-08-19T19:04:05.775Z,26.10
2022-08-19T19:06:37.934Z,26.00
2022-08-19T19:09:15.450Z,26.00
2022-08-19T19:11:48.734Z,25.90
2022-08-19T19:14:45.687Z,25.90
2022-08-19T19:17:14.778Z,25.90
2022-08-19T19:19:42.890Z,25.80
2022-08-19T19:22:14.187Z,25.80
2022-08-19T19:24:48.746Z,25.80
2022-08-19T19:27:20.289Z,25.70
2022-08-19T19:29:52.043Z,25.70
2022-08-19T19:32:24.093Z,25.70
2022-08-19T19:34:51.145Z,25.70
2022-08-19T19:37:18.689Z,25.60
2022-08-19T19:39:47.854Z,25.60
2022-08-19T19:42:23.669Z,25.60
2022-08-19T19:44:54.730Z,25.60
2022-08-19T19:47:24.285Z,25.60
2022-08-19T19:50:13.226Z,25.50
2022-08-19T19:52:40.067Z,25.40
2022-08-19T19:55:17.002Z,25.40
2022-08-19T19:57:49.171Z,25.40
2022-08-19T20:00:18.842Z,25.40
2022-08-19T20:02:49.762Z,25.40
2022-08-19T20:05:21.506Z,25.40
2022-08-19T20:08:08.581Z,25.50
2022-08-19T20:10:36.577Z,25.40
2022-08-19T20:13:05.863Z,25.40
2022-08-19T20:15:33.552Z,25.40
2022-08-19T20:18:02.252Z,25.30
2022-08-19T20:20:30.279Z,25.10
2022-08-19T20:23:03.642Z,25.10
2022-08-19T20:25:40.927Z,25.00
2022-08-19T20:28:10.643Z,25.00
2022-08-19T20:30:46.278Z,25.00
2022-08-19T20:33:14.527Z,25.10
2022-08-19T20:35:46.147Z,25.00
2022-08-19T20:38:13.651Z,25.00
2022-08-19T20:40:41.204Z,24.90
2022-08-19T20:43:13.756Z,24.90
2022-08-19T20:45:40.911Z,24.90
2022-08-19T20:48:10.480Z,24.90
2022-08-19T20:50:38.349Z,24.90
2022-08-19T20:53:12.348Z,25.00
2022-08-19T20:55:39.604Z,25.00
2022-08-19T20:58:07.079Z,25.00
2022-08-19T21:00:35.536Z,25.00
2022-08-19T21:03:02.632Z,25.10
2022-08-19T21:05:32.989Z,25.10
2022-08-19T21:08:04.619Z,25.10
2022-08-19T21:10:32.043Z,25.10
2022-08-19T21:12:59.151Z,25.10
2022-08-19T21:15:28.898Z,25.10
2022-08-19T21:17:57.914Z,25.10
2022-08-19T21:20:25.114Z,25.10
2022-08-19T21:22:55.177Z,25.10
2022-08-19T21:25:22.291Z,25.00
2022-08-19T21:27:49.449Z,25.00
2022-08-19T21:30:16.462Z,25.00
2022-08-19T21:32:43.857Z,24.90
2022-08-19T21:35:12.447Z,24.90
2022-08-19T21:37:39.434Z,24.80
2022-08-19T21:40:08.755Z,24.80
2022-08-19T21:42:36.165Z,24.80
2022-08-19T21:45:03.656Z,24.70
2022-08-19T21:47:30.781Z,24.70
2022-08-19T21:49:57.923Z,24.70
2022-08-19T21:52:27.843Z,24.70
2022-08-19T21:54:55.709Z,24.70
2022-08-19T21:57:24.528Z,24.60
2022-08-19T21:59:52.733Z,24.60
2022-08-19T22:02:21.493Z,24.60
2022-08-19T22:04:49.103Z,24.60
2022-08-19T22:07:16.374Z,24.60
2022-08-19T22:09:46.094Z,24.50
2022-08-19T22:12:23.897Z,24.50
2022-08-19T22:14:51.917Z,24.50
2022-08-19T22:17:19.799Z,24.50
2022-08-19T22:19:46.967Z,24.50
2022-08-19T22:22:20.181Z,24.50
2022-08-19T22:24:48.556Z,24.50
2022-08-19T22:27:15.714Z,24.50
2022-08-19T22:29:43.493Z,24.50
2022-08-19T22:32:27.080Z,24.50
2022-08-19T22:34:59.595Z,24.50
2022-08-19T22:37:29.137Z,24.60
2022-08-19T22:39:57.963Z,24.50
2022-08-19T22:42:25.322Z,24.50
2022-08-19T22:44:59.112Z,24.50
2022-08-19T22:47:27.171Z,24.50
2022-08-19T22:49:59.159Z,24.50
2022-08-19T22:52:26.273Z,24.50
2022-08-19T22:54:59.689Z,24.40
2022-08-19T22:57:30.022Z,24.40
2022-08-19T23:00:00.939Z,24.40
2022-08-19T23:02:34.447Z,24.30
2022-08-19T23:05:02.550Z,24.30
2022-08-19T23:07:29.786Z,24.30
2022-08-19T23:09:58.308Z,24.30
2022-08-19T23:12:32.692Z,24.20
2022-08-19T23:15:03.915Z,24.20
2022-08-19T23:17:31.016Z,24.20
2022-08-19T23:20:00.497Z,24.20
2022-08-19T23:22:29.309Z,24.20
2022-08-19T23:25:06.227Z,24.20
2022-08-19T23:27:51.900Z,24.20
2022-08-19T23:30:28.122Z,24.20
2022-08-19T23:32:56.110Z,24.10
2022-08-19T23:35:24.587Z,24.10
2022-08-19T23:37:52.120Z,24.00
2022-08-19T23:40:23.444Z,24.00
2022-08-19T23:42:51.742Z,23.90
2022-08-19T23:45:23.816Z,23.90
2022-08-19T23:47:51.904Z,23.90
2022-08-19T23:50:21.679Z,23.90
2022-08-19T23:52:57.537Z,23.90
2022-08-19T23:55:31.687Z,23.80
2022-08-19T23:57:59.880Z,23.90
